Time,TemperatureF,DewpointF,PressureIn,WindDirection,WindDirectionDegrees,WindSpeedMPH,WindSpeedGustMPH,Humidity,HourlyPrecipIn,Conditions,Clouds,dailyrainin,SoftwareType,DateUTC
2013-05-27 00:01:00,54.5,37.2,30.03,WSW,257,0.0,0.0,52,0.00,,,0.00,VWS V13.01,2013-05-27 07:01:00,
2013-05-27 00:06:00,54.5,37.2,30.00,WSW,257,0.0,0.0,52,0.00,,,0.00,VWS V13.01,2013-05-27 07:06:00,
2013-05-27 00:11:00,54.3,37.6,30.00,WSW,257,0.0,0.0,53,0.00,,,0.00,VWS V13.01,2013-05-27 07:11:00,
2013-05-27 00:16:00,54.3,37.6,30.00,WSW,257,0.0,3.6,53,0.00,,,0.00,VWS V13.01,2013-05-27 07:16:00,
2013-05-27 00:21:00,54.1,37.9,30.00,WSW,257,2.7,4.0,54,0.00,,,0.00,VWS V13.01,2013-05-27 07:21:00,
2013-05-27 00:26:00,54.1,37.9,30.00,WSW,257,3.1,3.1,54,0.00,,,0.00,VWS V13.01,2013-05-27 07:26:00,
2013-05-27 00:31:00,54.0,37.7,30.00,WSW,257,0.0,0.0,54,0.00,,,0.00,VWS V13.01,2013-05-27 07:31:00,
2013-05-27 00:36:00,54.0,37.7,30.00,WSW,257,0.0,0.0,54,0.00,,,0.00,VWS V13.01,2013-05-27 07:36:00,
2013-05-27 00:41:00,53.8,37.5,30.00,WSW,257,2.2,4.0,54,0.00,,,0.00,VWS V13.01,2013-05-27 07:41:00,
2013-05-27 00:46:00,53.8,38.0,30.00,WSW,257,3.1,3.1,55,0.00,,,0.00,VWS V13.01,2013-05-27 07:46:00,
2013-05-27 00:51:00,53.8,38.5,30.00,WSW,257,0.0,0.0,56,0.00,,,0.00,VWS V13.01,2013-05-27 07:51:00,
2013-05-27 00:56:00,53.8,38.5,30.00,WSW,257,3.1,3.6,56,0.00,,,0.00,VWS V13.01,2013-05-27 07:56:00,
2013-05-27 01:01:00,53.8,38.5,30.00,WSW,257,2.2,2.2,56,0.00,,,0.00,VWS V13.01,2013-05-27 08:01:00,
2013-05-27 01:06:00,53.6,38.3,30.00,WSW,257,0.0,0.0,56,0.00,,,0.00,VWS V13.01,2013-05-27 08:06:00,
2013-05-27 01:11:00,53.6,38.8,30.00,WSW,257,0.0,0.0,57,0.00,,,0.00,VWS V13.01,2013-05-27 08:11:00,
2013-05-27 01:16:00,53.6,38.8,30.00,WSW,257,0.0,0.0,57,0.00,,,0.00,VWS V13.01,2013-05-27 08:16:00,
2013-05-27 01:21:00,53.6,39.2,30.00,WSW,257,0.0,0.0,58,0.00,,,0.00,VWS V13.01,2013-05-27 08:21:00,
2013-05-27 01:26:00,53.4,39.5,30.00,WSW,257,4.0,4.0,59,0.00,,,0.00,VWS V13.01,2013-05-27 08:26:00,
2013-05-27 01:31:00,53.4,39.9,30.00,WSW,257,0.0,0.0,60,0.00,,,0.00,VWS V13.01,2013-05-27 08:31:00,
2013-05-27 01:36:00,53.4,40.3,29.97,WSW,257,2.2,2.7,61,0.00,,,0.00,VWS V13.01,2013-05-27 08:36:00,
2013-05-27 01:41:00,53.4,40.3,29.97,WSW,257,0.0,0.0,61,0.00,,,0.00,VWS V13.01,2013-05-27 08:41:00,
2013-05-27 01:46:00,53.2,40.6,29.97,WSW,257,0.0,0.0,62,0.00,,,0.00,VWS V13.01,2013-05-27 08:46:00,
2013-05-27 01:51:00,53.2,40.6,29.97,WSW,257,2.7,2.7,62,0.00,,,0.00,VWS V13.01,2013-05-27 08:51:00,
2013-05-27 01:56:00,53.2,41.0,29.97,WSW,257,0.0,0.0,63,0.00,,,0.00,VWS V13.01,2013-05-27 08:56:00,
2013-05-27 02:01:00,53.2,41.0,29.97,WSW,257,0.0,4.0,63,0.00,,,0.00,VWS V13.01,2013-05-27 09:01:00,
2013-05-27 02:06:00,53.2,41.4,29.97,WSW,257,2.2,2.2,64,0.00,,,0.00,VWS V13.01,2013-05-27 09:06:00,
2013-05-27 02:11:00,53.2,41.8,29.97,WSW,257,2.2,2.2,65,0.00,,,0.00,VWS V13.01,2013-05-27 09:11:00,
2013-05-27 02:16:00,53.1,42.0,29.97,WSW,257,3.1,3.1,66,0.00,,,0.00,VWS V13.01,2013-05-27 09:16:00,
2013-05-27 02:21:00,53.1,42.4,29.97,WSW,257,2.7,3.1,67,0.00,,,0.00,VWS V13.01,2013-05-27 09:21:00,
2013-05-27 02:26:00,53.1,42.8,29.97,WSW,252,0.0,0.0,68,0.00,,,0.00,VWS V13.01,2013-05-27 09:26:00,
2013-05-27 02:31:00,53.1,43.2,29.97,WSW,252,0.0,0.0,69,0.00,,,0.00,VWS V13.01,2013-05-27 09:31:00,
2013-05-27 02:36:00,53.1,43.2,29.94,WSW,252,3.1,3.1,69,0.00,,,0.00,VWS V13.01,2013-05-27 09:36:00,
2013-05-27 02:41:00,52.9,43.4,29.94,SW,236,0.0,0.0,70,0.00,,,0.00,VWS V13.01,2013-05-27 09:41:00,
2013-05-27 02:46:00,52.9,43.4,29.94,SW,236,0.0,0.0,70,0.00,,,0.00,VWS V13.01,2013-05-27 09:46:00,
2013-05-27 02:51:00,52.9,43.8,29.94,SW,227,0.0,3.6,71,0.00,,,0.00,VWS V13.01,2013-05-27 09:51:00,
2013-05-27 02:56:00,53.1,43.9,29.94,SW,227,3.1,3.1,71,0.00,,,0.00,VWS V13.01,2013-05-27 09:56:00,
2013-05-27 03:01:00,53.1,44.3,29.94,SW,227,0.0,2.2,72,0.00,,,0.00,VWS V13.01,2013-05-27 10:01:00,
2013-05-27 03:06:00,53.1,44.3,29.94,SW,227,2.2,2.7,72,0.00,,,0.00,VWS V13.01,2013-05-27 10:06:00,
2013-05-27 03:11:00,53.1,44.3,29.94,SW,227,2.2,4.9,72,0.00,,,0.00,VWS V13.01,2013-05-27 10:11:00,
2013-05-27 03:16:00,53.1,44.3,29.94,SW,227,0.0,3.1,72,0.00,,,0.00,VWS V13.01,2013-05-27 10:16:00,
2013-05-27 03:21:00,53.1,44.7,29.91,SW,227,0.0,0.0,73,0.00,,,0.00,VWS V13.01,2013-05-27 10:21:00,
2013-05-27 03:26:00,53.1,44.7,29.91,SW,227,5.4,5.4,73,0.00,,,0.00,VWS V13.01,2013-05-27 10:26:00,
2013-05-27 03:31:00,53.1,44.7,29.91,SW,227,5.4,5.8,73,0.00,,,0.00,VWS V13.01,2013-05-27 10:31:00,
2013-05-27 03:36:00,53.1,44.7,29.91,SW,229,0.0,3.1,73,0.00,,,0.00,VWS V13.01,2013-05-27 10:36:00,
2013-05-27 03:41:00,53.1,44.7,29.91,SW,229,4.0,4.5,73,0.00,,,0.00,VWS V13.01,2013-05-27 10:41:00,
2013-05-27 03:46:00,53.1,44.7,29.91,SW,229,0.0,0.0,73,0.00,,,0.00,VWS V13.01,2013-05-27 10:46:00,
2013-05-27 03:51:00,53.1,45.0,29.91,SW,229,0.0,3.1,74,0.00,,,0.00,VWS V13.01,2013-05-27 10:51:00,
2013-05-27 03:56:00,53.1,45.0,29.91,SW,229,0.0,0.0,74,0.00,,,0.00,VWS V13.01,2013-05-27 10:56:00,
2013-05-27 04:01:00,53.1,45.0,29.91,SW,229,2.7,5.8,74,0.00,,,0.00,VWS V13.01,2013-05-27 11:01:00,
2013-05-27 04:06:00,53.1,45.4,29.88,SW,227,3.6,5.4,75,0.00,,,0.00,VWS V13.01,2013-05-27 11:06:00,
2013-05-27 04:11:00,53.1,45.4,29.88,SW,225,3.1,3.1,75,0.00,,,0.00,VWS V13.01,2013-05-27 11:11:00,
2013-05-27 04:16:00,53.1,45.4,29.88,WNW,301,3.6,3.6,75,0.00,,,0.00,VWS V13.01,2013-05-27 11:16:00,
2013-05-27 04:21:00,53.2,45.5,29.88,SW,226,4.0,4.0,75,0.00,,,0.00,VWS V13.01,2013-05-27 11:21:00,
2013-05-27 04:26:00,53.2,45.5,29.88,WSW,244,3.1,3.1,75,0.00,,,0.00,VWS V13.01,2013-05-27 11:26:00,
2013-05-27 04:31:00,53.2,45.5,29.88,SW,220,4.5,4.5,75,0.00,,,0.00,VWS V13.01,2013-05-27 11:31:00,
2013-05-27 04:36:00,53.4,46.1,29.88,SW,220,2.7,5.8,76,0.00,,,0.00,VWS V13.01,2013-05-27 11:36:00,
2013-05-27 04:41:00,53.4,46.1,29.88,SW,219,0.0,3.6,76,0.00,,,0.00,VWS V13.01,2013-05-27 11:41:00,
2013-05-27 04:46:00,53.4,46.1,29.88,SW,220,0.0,0.0,76,0.00,,,0.00,VWS V13.01,2013-05-27 11:46:00,
2013-05-27 04:51:00,53.6,46.2,29.88,SW,225,2.2,2.2,76,0.00,,,0.00,VWS V13.01,2013-05-27 11:51:00,
2013-05-27 04:56:00,53.6,46.6,29.88,SW,223,2.7,3.1,77,0.00,,,0.00,VWS V13.01,2013-05-27 11:56:00,
2013-05-27 05:01:00,53.6,46.6,29.88,West,261,6.3,6.3,77,0.00,,,0.00,VWS V13.01,2013-05-27 12:01:00,
2013-05-27 05:06:00,53.8,46.8,29.88,West,265,0.0,0.0,77,0.00,,,0.00,VWS V13.01,2013-05-27 12:06:00,
2013-05-27 05:11:00,53.8,47.1,29.88,West,265,0.0,0.0,78,0.00,,,0.00,VWS V13.01,2013-05-27 12:11:00,
2013-05-27 05:16:00,53.8,47.4,29.88,West,265,2.7,5.8,79,0.00,,,0.00,VWS V13.01,2013-05-27 12:16:00,
2013-05-27 05:21:00,54.0,47.6,29.85,SW,230,3.1,4.0,79,0.00,,,0.00,VWS V13.01,2013-05-27 12:21:00,
2013-05-27 05:26:00,54.0,47.6,29.85,SW,230,4.9,4.9,79,0.00,,,0.00,VWS V13.01,2013-05-27 12:26:00,
2013-05-27 05:31:00,54.0,47.9,29.85,SW,231,2.7,3.1,80,0.00,,,0.00,VWS V13.01,2013-05-27 12:31:00,
2013-05-27 05:36:00,54.1,48.1,29.85,SW,231,0.0,3.6,80,0.00,,,0.00,VWS V13.01,2013-05-27 12:36:00,
2013-05-27 05:41:00,54.1,48.5,29.85,SW,231,0.0,5.8,81,0.00,,,0.00,VWS V13.01,2013-05-27 12:41:00,
2013-05-27 05:46:00,54.1,48.5,29.85,SW,231,0.0,3.6,81,0.00,,,0.00,VWS V13.01,2013-05-27 12:46:00,
2013-05-27 05:51:00,54.3,49.0,29.85,West,260,2.2,4.0,82,0.00,,,0.00,VWS V13.01,2013-05-27 12:51:00,
2013-05-27 05:55:00,54.3,49.0,29.85,SW,222,3.1,3.1,82,0.00,,,0.00,VWS V13.01,2013-05-27 12:55:00,
2013-05-27 06:00:00,54.3,49.3,29.85,SSW,206,2.7,4.9,83,0.00,,,0.00,VWS V13.01,2013-05-27 13:00:00,
2013-05-27 06:05:00,54.3,49.3,29.85,SSW,206,0.0,4.0,83,0.00,,,0.00,VWS V13.01,2013-05-27 13:05:00,
2013-05-27 06:10:00,54.5,49.5,29.85,SSW,206,0.0,2.2,83,0.00,,,0.00,VWS V13.01,2013-05-27 13:10:00,
2013-05-27 06:15:00,54.5,49.5,29.85,SSW,200,0.0,3.6,83,0.00,,,0.00,VWS V13.01,2013-05-27 13:15:00,
2013-05-27 06:20:00,54.5,49.5,29.85,SSW,206,0.0,2.7,83,0.00,,,0.00,VWS V13.01,2013-05-27 13:20:00,
2013-05-27 06:25:00,54.7,49.6,29.85,WNW,292,11.4,11.4,83,0.00,,,0.00,VWS V13.01,2013-05-27 13:25:00,
2013-05-27 06:30:00,54.7,49.6,29.85,ENE,68,2.7,4.9,83,0.00,,,0.00,VWS V13.01,2013-05-27 13:30:00,
2013-05-27 06:35:00,54.7,49.6,29.83,West,271,6.3,6.3,83,0.00,,,0.00,VWS V13.01,2013-05-27 13:35:00,
2013-05-27 06:40:00,54.9,49.8,29.83,SW,219,3.1,5.8,83,0.00,,,0.00,VWS V13.01,2013-05-27 13:40:00,
2013-05-27 06:45:00,54.9,49.8,29.83,SW,220,0.0,4.0,83,0.00,,,0.00,VWS V13.01,2013-05-27 13:45:00,
2013-05-27 06:50:00,54.9,49.8,29.83,SW,219,2.7,4.0,83,0.00,,,0.00,VWS V13.01,2013-05-27 13:50:00,
2013-05-27 06:55:00,54.9,50.1,29.83,SSW,212,3.6,8.1,84,0.00,,,0.00,VWS V13.01,2013-05-27 13:55:00,
2013-05-27 07:00:00,55.0,50.3,29.83,SSW,211,3.1,3.1,84,0.00,,,0.00,VWS V13.01,2013-05-27 14:00:00,
2013-05-27 07:05:00,55.0,50.3,29.83,SSW,204,3.6,5.8,84,0.00,,,0.00,VWS V13.01,2013-05-27 14:05:00,
2013-05-27 07:10:00,55.0,50.3,29.83,SSW,212,3.1,3.1,84,0.00,,,0.00,VWS V13.01,2013-05-27 14:10:00,
2013-05-27 07:15:00,55.2,50.5,29.83,WSW,256,4.9,4.9,84,0.00,,,0.00,VWS V13.01,2013-05-27 14:15:00,
2013-05-27 07:20:00,55.2,50.5,29.83,SW,225,2.7,4.0,84,0.00,,,0.00,VWS V13.01,2013-05-27 14:20:00,
2013-05-27 07:25:00,55.2,50.5,29.83,SSW,198,5.4,8.3,84,0.00,,,0.00,VWS V13.01,2013-05-27 14:25:00,
2013-05-27 07:30:00,55.2,50.5,29.83,SSW,202,5.4,5.4,84,0.00,,,0.00,VWS V13.01,2013-05-27 14:30:00,
2013-05-27 07:35:00,55.2,50.5,29.83,SW,215,2.7,3.6,84,0.00,,,0.00,VWS V13.01,2013-05-27 14:35:00,
2013-05-27 07:40:00,55.2,50.5,29.83,West,274,6.3,6.3,84,0.00,,,0.00,VWS V13.01,2013-05-27 14:40:00,
2013-05-27 07:45:00,55.2,50.5,29.83,WSW,237,2.7,4.0,84,0.00,,,0.00,VWS V13.01,2013-05-27 14:45:00,
2013-05-27 07:50:00,55.4,50.3,29.83,WSW,239,2.2,7.6,83,0.00,,,0.00,VWS V13.01,2013-05-27 14:50:00,
2013-05-27 07:55:00,55.4,50.3,29.83,WSW,239,3.1,3.1,83,0.00,,,0.00,VWS V13.01,2013-05-27 14:55:00,
2013-05-27 08:00:00,55.4,50.3,29.83,WSW,239,0.0,4.5,83,0.00,,,0.00,VWS V13.01,2013-05-27 15:00:00,
2013-05-27 08:05:00,55.4,50.3,29.83,WNW,297,4.0,4.0,83,0.00,,,0.00,VWS V13.01,2013-05-27 15:05:00,
2013-05-27 08:10:00,55.4,50.7,29.83,SW,216,6.3,6.3,84,0.00,,,0.00,VWS V13.01,2013-05-27 15:10:00,
2013-05-27 08:15:00,55.4,50.7,29.83,SSW,205,2.7,4.0,84,0.00,,,0.00,VWS V13.01,2013-05-27 15:15:00,
2013-05-27 08:20:00,55.6,50.8,29.83,SSW,205,3.1,3.6,84,0.00,,,0.00,VWS V13.01,2013-05-27 15:20:00,
2013-05-27 08:25:00,55.8,51.0,29.83,SSW,205,0.0,0.0,84,0.00,,,0.00,VWS V13.01,2013-05-27 15:25:00,
2013-05-27 08:30:00,55.8,51.0,29.83,SSW,205,3.6,4.0,84,0.00,,,0.00,VWS V13.01,2013-05-27 15:30:00,
2013-05-27 08:35:00,55.8,51.0,29.83,SSW,205,0.0,5.8,84,0.00,,,0.00,VWS V13.01,2013-05-27 15:35:00,
2013-05-27 08:40:00,55.8,51.0,29.83,West,273,5.8,5.8,84,0.00,,,0.00,VWS V13.01,2013-05-27 15:40:00,
2013-05-27 08:45:00,55.9,51.2,29.83,WSW,257,0.0,3.6,84,0.00,,,0.00,VWS V13.01,2013-05-27 15:45:00,
2013-05-27 08:50:00,56.1,51.4,29.80,WSW,238,2.7,6.3,84,0.00,,,0.00,VWS V13.01,2013-05-27 15:50:00,
2013-05-27 08:55:00,55.9,51.2,29.80,SW,216,8.1,8.1,84,0.00,,,0.00,VWS V13.01,2013-05-27 15:55:00,
2013-05-27 09:00:00,56.1,51.4,29.80,SSW,196,3.6,3.6,84,0.00,,,0.00,VWS V13.01,2013-05-27 16:00:00,
2013-05-27 09:05:00,56.3,51.5,29.80,SSW,196,4.0,4.0,84,0.00,,,0.00,VWS V13.01,2013-05-27 16:05:00,
2013-05-27 09:10:00,56.3,51.2,29.80,SSW,196,6.3,6.3,83,0.00,,,0.00,VWS V13.01,2013-05-27 16:10:00,
2013-05-27 09:15:00,56.5,51.4,29.80,SSW,196,3.6,4.9,83,0.00,,,0.00,VWS V13.01,2013-05-27 16:15:00,
2013-05-27 09:20:00,56.3,50.9,29.80,SSW,196,3.1,8.1,82,0.00,,,0.00,VWS V13.01,2013-05-27 16:20:00,
2013-05-27 09:25:00,56.3,50.5,29.80,SSW,196,3.1,5.4,81,0.00,,,0.00,VWS V13.01,2013-05-27 16:25:00,
2013-05-27 09:30:00,56.3,50.5,29.80,SSW,196,3.1,3.6,81,0.00,,,0.00,VWS V13.01,2013-05-27 16:30:00,
2013-05-27 09:35:00,56.3,50.5,29.80,WSW,239,3.6,5.4,81,0.00,,,0.00,VWS V13.01,2013-05-27 16:35:00,
2013-05-27 09:40:00,56.5,51.1,29.80,WSW,237,0.0,0.0,82,0.00,,,0.00,VWS V13.01,2013-05-27 16:40:00,
2013-05-27 09:45:00,56.7,51.2,29.80,NW,311,4.0,8.3,82,0.00,,,0.00,VWS V13.01,2013-05-27 16:45:00,
2013-05-27 09:50:00,56.7,51.2,29.80,NW,315,5.4,5.4,82,0.00,,,0.00,VWS V13.01,2013-05-27 16:50:00,
2013-05-27 09:55:00,56.7,51.2,29.80,SW,227,4.5,10.5,82,0.00,,,0.00,VWS V13.01,2013-05-27 16:55:00,
2013-05-27 10:00:00,56.8,51.4,29.80,SW,228,5.8,6.3,82,0.00,,,0.00,VWS V13.01,2013-05-27 17:00:00,
2013-05-27 10:05:00,56.8,51.4,29.80,WSW,244,5.4,5.4,82,0.00,,,0.00,VWS V13.01,2013-05-27 17:05:00,
2013-05-27 10:10:00,56.8,51.1,29.80,SW,225,3.6,7.6,81,0.00,,,0.00,VWS V13.01,2013-05-27 17:10:00,
2013-05-27 10:15:00,57.0,51.3,29.80,SW,216,8.7,8.7,81,0.00,,,0.00,VWS V13.01,2013-05-27 17:15:00,
2013-05-27 10:20:00,57.0,50.9,29.80,West,270,5.4,5.4,80,0.00,,,0.00,VWS V13.01,2013-05-27 17:20:00,
2013-05-27 10:25:00,57.2,51.1,29.80,WNW,294,6.3,6.3,80,0.00,,,0.00,VWS V13.01,2013-05-27 17:25:00,
2013-05-27 10:30:00,57.2,50.8,29.80,SSW,204,5.8,5.8,79,0.00,,,0.00,VWS V13.01,2013-05-27 17:30:00,
2013-05-27 10:35:00,57.2,50.8,29.80,WNW,294,6.3,6.3,79,0.00,,,0.00,VWS V13.01,2013-05-27 17:35:00,
2013-05-27 10:40:00,57.2,50.8,29.80,WNW,298,8.1,8.1,79,0.00,,,0.00,VWS V13.01,2013-05-27 17:40:00,
2013-05-27 10:45:00,57.2,51.1,29.80,West,259,8.7,12.3,80,0.00,,,0.00,VWS V13.01,2013-05-27 17:45:00,
2013-05-27 10:50:00,57.2,51.1,29.80,West,278,11.0,11.0,80,0.00,,,0.00,VWS V13.01,2013-05-27 17:50:00,
2013-05-27 10:55:00,57.2,51.1,29.80,WNW,283,5.8,8.1,80,0.00,,,0.00,VWS V13.01,2013-05-27 17:55:00,
2013-05-27 11:00:00,57.2,50.4,29.80,West,276,3.6,10.1,78,0.00,,,0.00,VWS V13.01,2013-05-27 18:00:00,
2013-05-27 11:05:00,57.2,50.1,29.80,WNW,286,8.1,8.3,77,0.00,,,0.00,VWS V13.01,2013-05-27 18:05:00,
2013-05-27 11:10:00,57.2,49.7,29.80,WSW,248,6.3,7.6,76,0.00,,,0.00,VWS V13.01,2013-05-27 18:10:00,
2013-05-27 11:15:00,57.2,49.7,29.80,West,274,14.5,14.5,76,0.00,,,0.00,VWS V13.01,2013-05-27 18:15:00,
2013-05-27 11:20:00,57.0,49.2,29.83,NW,305,5.8,6.3,75,0.00,,,0.00,VWS V13.01,2013-05-27 18:20:00,
2013-05-27 11:25:00,57.0,49.9,29.83,NW,310,7.6,7.6,77,0.00,,,0.00,VWS V13.01,2013-05-27 18:25:00,
2013-05-27 11:30:00,57.0,50.2,29.83,NW,304,11.9,11.9,78,0.00,,,0.00,VWS V13.01,2013-05-27 18:30:00,
2013-05-27 11:35:00,56.8,50.1,29.80,NNW,329,8.7,15.0,78,0.00,,,0.00,VWS V13.01,2013-05-27 18:35:00,
2013-05-27 11:40:00,56.7,49.9,29.80,WNW,295,8.3,14.5,78,0.00,,,0.00,VWS V13.01,2013-05-27 18:40:00,
2013-05-27 11:45:00,56.8,50.4,29.80,NW,304,15.0,17.9,79,0.00,,,0.00,VWS V13.01,2013-05-27 18:45:00,
2013-05-27 11:50:00,56.7,50.2,29.83,WNW,282,16.8,16.8,79,0.00,,,0.00,VWS V13.01,2013-05-27 18:50:00,
2013-05-27 11:55:00,56.7,50.2,29.83,WNW,295,10.1,10.1,79,0.00,,,0.00,VWS V13.01,2013-05-27 18:55:00,
2013-05-27 12:00:00,56.8,50.4,29.83,WNW,295,14.1,15.0,79,0.00,,,0.00,VWS V13.01,2013-05-27 19:00:00,
2013-05-27 12:05:00,56.8,50.1,29.83,SW,216,2.7,8.7,78,0.00,,,0.00,VWS V13.01,2013-05-27 19:05:00,
2013-05-27 12:10:00,57.0,50.2,29.83,West,274,8.1,15.4,78,0.00,,,0.00,VWS V13.01,2013-05-27 19:10:00,
2013-05-27 12:15:00,57.0,49.9,29.83,WNW,296,14.5,14.5,77,0.00,,,0.00,VWS V13.01,2013-05-27 19:15:00,
2013-05-27 12:20:00,57.0,49.9,29.83,West,264,8.3,13.2,77,0.00,,,0.00,VWS V13.01,2013-05-27 19:20:00,
2013-05-27 12:25:00,57.0,49.9,29.83,WNW,294,12.3,14.1,77,0.00,,,0.00,VWS V13.01,2013-05-27 19:25:00,
2013-05-27 12:30:00,56.8,49.0,29.83,West,266,8.3,8.3,75,0.00,,,0.00,VWS V13.01,2013-05-27 19:30:00,
2013-05-27 12:35:00,57.0,49.5,29.83,WSW,257,17.0,17.0,76,0.00,,,0.00,VWS V13.01,2013-05-27 19:35:00,
2013-05-27 12:40:00,57.0,49.5,29.83,WNW,290,11.0,11.0,76,0.00,,,0.00,VWS V13.01,2013-05-27 19:40:00,
2013-05-27 12:45:00,57.0,49.9,29.83,NW,305,5.4,5.8,77,0.00,,,0.00,VWS V13.01,2013-05-27 19:45:00,
2013-05-27 12:50:00,57.2,50.4,29.83,SW,218,5.8,5.8,78,0.00,,,0.00,VWS V13.01,2013-05-27 19:50:00,
2013-05-27 12:55:00,57.2,50.1,29.83,West,259,11.0,11.0,77,0.00,,,0.00,VWS V13.01,2013-05-27 19:55:00,
2013-05-27 13:00:00,57.2,50.1,29.83,WNW,300,11.0,11.0,77,0.00,,,0.00,VWS V13.01,2013-05-27 20:00:00,
2013-05-27 13:05:00,57.4,50.2,29.83,WNW,285,4.9,6.3,77,0.00,,,0.00,VWS V13.01,2013-05-27 20:05:00,
2013-05-27 13:10:00,57.2,50.1,29.83,SW,231,6.3,8.3,77,0.00,,,0.00,VWS V13.01,2013-05-27 20:10:00,
2013-05-27 13:15:00,57.2,49.7,29.83,WNW,301,10.5,10.5,76,0.00,,,0.00,VWS V13.01,2013-05-27 20:15:00,
2013-05-27 13:20:00,57.2,50.1,29.83,West,265,3.6,11.0,77,0.00,,,0.00,VWS V13.01,2013-05-27 20:20:00,
2013-05-27 13:25:00,57.2,49.7,29.83,WNW,291,12.8,12.8,76,0.00,,,0.00,VWS V13.01,2013-05-27 20:25:00,
2013-05-27 13:30:00,57.2,49.7,29.83,WNW,301,5.8,6.3,76,0.00,,,0.00,VWS V13.01,2013-05-27 20:30:00,
2013-05-27 13:35:00,57.0,49.9,29.83,West,260,6.3,9.2,77,0.00,,,0.00,VWS V13.01,2013-05-27 20:35:00,
2013-05-27 13:40:00,57.2,50.1,29.83,WNW,292,11.9,11.9,77,0.00,,,0.00,VWS V13.01,2013-05-27 20:40:00,
2013-05-27 13:45:00,57.2,50.1,29.83,WNW,282,11.0,11.4,77,0.00,,,0.00,VWS V13.01,2013-05-27 20:45:00,
2013-05-27 13:50:00,57.2,50.1,29.83,WNW,303,16.8,16.8,77,0.00,,,0.00,VWS V13.01,2013-05-27 20:50:00,
2013-05-27 13:55:00,56.8,49.4,29.83,WNW,290,8.3,14.5,76,0.00,,,0.00,VWS V13.01,2013-05-27 20:55:00,
2013-05-27 14:00:00,56.8,49.7,29.83,NW,311,4.0,4.0,77,0.00,,,0.00,VWS V13.01,2013-05-27 21:00:00,
2013-05-27 14:05:00,57.0,50.2,29.83,West,274,10.5,10.5,78,0.00,,,0.00,VWS V13.01,2013-05-27 21:05:00,
2013-05-27 14:10:00,57.0,50.2,29.83,WNW,300,11.0,11.0,78,0.00,,,0.00,VWS V13.01,2013-05-27 21:10:00,
2013-05-27 14:15:00,57.0,50.6,29.83,West,278,6.3,6.3,79,0.00,,,0.00,VWS V13.01,2013-05-27 21:15:00,
2013-05-27 14:20:00,57.0,50.6,29.83,West,281,8.7,8.7,79,0.00,,,0.00,VWS V13.01,2013-05-27 21:20:00,
2013-05-27 14:25:00,56.8,50.1,29.83,NW,307,13.2,15.9,78,0.00,,,0.00,VWS V13.01,2013-05-27 21:25:00,
2013-05-27 14:30:00,57.2,50.4,29.83,WNW,284,4.0,7.6,78,0.00,,,0.00,VWS V13.01,2013-05-27 21:30:00,
2013-05-27 14:35:00,57.6,50.8,29.85,NW,307,10.5,10.5,78,0.00,,,0.00,VWS V13.01,2013-05-27 21:35:00,
2013-05-27 14:40:00,57.7,50.2,29.85,West,271,4.0,8.1,76,0.00,,,0.00,VWS V13.01,2013-05-27 21:40:00,
2013-05-27 14:45:00,57.6,48.2,29.85,NW,307,4.0,5.8,71,0.00,,,0.00,VWS V13.01,2013-05-27 21:45:00,
2013-05-27 14:50:00,57.7,47.7,29.85,West,278,6.3,8.3,69,0.00,,,0.00,VWS V13.01,2013-05-27 21:50:00,
2013-05-27 14:55:00,57.7,46.5,29.85,West,264,8.3,8.7,66,0.00,,,0.00,VWS V13.01,2013-05-27 21:55:00,
2013-05-27 15:00:00,57.6,44.7,29.85,NW,306,3.6,7.6,62,0.00,,,0.00,VWS V13.01,2013-05-27 22:00:00,
2013-05-27 15:05:00,57.9,45.4,29.85,WSW,258,2.2,3.6,63,0.00,,,0.00,VWS V13.01,2013-05-27 22:05:00,
2013-05-27 15:10:00,57.9,45.0,29.85,WSW,257,3.6,8.3,62,0.00,,,0.00,VWS V13.01,2013-05-27 22:10:00,
2013-05-27 15:15:00,57.9,45.0,29.85,WNW,293,7.6,12.8,62,0.00,,,0.00,VWS V13.01,2013-05-27 22:15:00,
2013-05-27 15:20:00,57.7,44.0,29.85,SW,225,15.0,15.0,60,0.00,,,0.00,VWS V13.01,2013-05-27 22:20:00,
2013-05-27 15:25:00,57.6,43.8,29.85,West,281,5.8,8.7,60,0.00,,,0.00,VWS V13.01,2013-05-27 22:25:00,
2013-05-27 15:30:00,57.2,43.5,29.85,West,279,6.3,9.6,60,0.00,,,0.00,VWS V13.01,2013-05-27 22:30:00,
2013-05-27 15:35:00,57.2,44.3,29.85,WNW,290,8.3,8.3,62,0.00,,,0.00,VWS V13.01,2013-05-27 22:35:00,
2013-05-27 15:40:00,57.0,45.0,29.85,WNW,300,5.8,8.1,64,0.00,,,0.00,VWS V13.01,2013-05-27 22:40:00,
2013-05-27 15:45:00,56.8,45.2,29.85,NW,304,7.6,9.2,65,0.00,,,0.00,VWS V13.01,2013-05-27 22:45:00,
2013-05-27 15:50:00,56.7,45.4,29.85,West,259,13.2,13.2,66,0.00,,,0.00,VWS V13.01,2013-05-27 22:50:00,
2013-05-27 15:55:00,56.1,44.1,29.85,WNW,300,6.7,10.5,64,0.00,,,0.00,VWS V13.01,2013-05-27 22:55:00,
2013-05-27 16:00:00,56.3,45.5,29.85,WNW,294,4.0,10.5,67,0.00,,,0.00,VWS V13.01,2013-05-27 23:00:00,
2013-05-27 16:05:00,56.1,45.7,29.88,WNW,294,12.8,12.8,68,0.00,,,0.00,VWS V13.01,2013-05-27 23:05:00,
2013-05-27 16:10:00,55.9,45.5,29.88,NW,317,4.0,6.3,68,0.00,,,0.00,VWS V13.01,2013-05-27 23:10:00,
2013-05-27 16:15:00,56.1,45.7,29.88,WNW,289,2.7,5.8,68,0.00,,,0.00,VWS V13.01,2013-05-27 23:15:00,
2013-05-27 16:20:00,56.1,45.7,29.88,WNW,286,3.1,4.0,68,0.00,,,0.00,VWS V13.01,2013-05-27 23:20:00,
2013-05-27 16:25:00,56.1,45.7,29.88,WSW,251,2.2,6.3,68,0.00,,,0.00,VWS V13.01,2013-05-27 23:25:00,
2013-05-27 16:30:00,56.1,45.3,29.88,NW,310,5.8,5.8,67,0.00,,,0.00,VWS V13.01,2013-05-27 23:30:00,
2013-05-27 16:35:00,56.3,45.5,29.88,NW,307,3.6,5.8,67,0.00,,,0.00,VWS V13.01,2013-05-27 23:35:00,
2013-05-27 16:40:00,56.3,45.5,29.88,WNW,284,4.9,5.4,67,0.00,,,0.00,VWS V13.01,2013-05-27 23:40:00,
2013-05-27 16:45:00,56.3,45.9,29.88,WNW,290,3.1,4.0,68,0.00,,,0.00,VWS V13.01,2013-05-27 23:45:00,
2013-05-27 17:21:00,55.8,45.8,29.88,West,275,0.0,4.9,69,0.00,,,0.00,VWS V13.01,2013-05-28 00:21:00,
2013-05-27 17:26:00,55.8,46.1,29.88,NW,311,6.3,6.3,70,0.00,,,0.00,VWS V13.01,2013-05-28 00:26:00,
2013-05-27 17:31:00,55.6,46.0,29.88,North,7,3.6,5.4,70,0.00,,,0.00,VWS V13.01,2013-05-28 00:31:00,
2013-05-27 17:36:00,55.4,45.8,29.88,WNW,300,10.1,10.1,70,0.00,,,0.00,VWS V13.01,2013-05-28 00:36:00,
2013-05-27 17:41:00,55.2,46.4,29.88,West,279,6.3,7.6,72,0.00,,,0.00,VWS V13.01,2013-05-28 00:41:00,
2013-05-27 17:46:00,55.4,46.9,29.88,WNW,291,8.3,8.7,73,0.00,,,0.00,VWS V13.01,2013-05-28 00:46:00,
2013-05-27 17:51:00,55.4,46.9,29.88,West,264,4.9,4.9,73,0.00,,,0.00,VWS V13.01,2013-05-28 00:51:00,
2013-05-27 17:56:00,55.2,47.1,29.88,WNW,283,5.8,8.1,74,0.00,,,0.00,VWS V13.01,2013-05-28 00:56:00,
2013-05-27 18:01:00,55.2,47.1,29.88,WNW,294,3.1,4.0,74,0.00,,,0.00,VWS V13.01,2013-05-28 01:01:00,
2013-05-27 18:06:00,55.2,47.1,29.88,West,261,4.9,4.9,74,0.00,,,0.00,VWS V13.01,2013-05-28 01:06:00,
2013-05-27 18:11:00,55.2,47.1,29.88,NW,312,3.6,7.6,74,0.00,,,0.00,VWS V13.01,2013-05-28 01:11:00,
2013-05-27 18:16:00,55.2,47.1,29.88,WNW,288,3.6,4.0,74,0.00,,,0.00,VWS V13.01,2013-05-28 01:16:00,
2013-05-27 18:21:00,55.4,47.3,29.88,West,275,3.6,5.8,74,0.00,,,0.00,VWS V13.01,2013-05-28 01:21:00,
2013-05-27 18:26:00,55.6,47.4,29.88,WNW,284,3.1,5.4,74,0.00,,,0.00,VWS V13.01,2013-05-28 01:26:00,
2013-05-27 18:31:00,55.4,47.3,29.88,NW,319,8.7,8.7,74,0.00,,,0.00,VWS V13.01,2013-05-28 01:31:00,
2013-05-27 18:36:00,55.6,47.4,29.88,NW,306,5.8,7.6,74,0.00,,,0.00,VWS V13.01,2013-05-28 01:36:00,
2013-05-27 18:41:00,55.4,47.3,29.88,WNW,299,3.6,5.8,74,0.00,,,0.00,VWS V13.01,2013-05-28 01:41:00,
2013-05-27 18:46:00,55.6,47.4,29.88,WNW,291,3.6,4.9,74,0.00,,,0.00,VWS V13.01,2013-05-28 01:46:00,
2013-05-27 18:51:00,55.6,47.4,29.88,WNW,288,0.0,0.0,74,0.00,,,0.00,VWS V13.01,2013-05-28 01:51:00,
2013-05-27 18:56:00,55.6,47.4,29.88,WNW,289,5.4,5.8,74,0.00,,,0.00,VWS V13.01,2013-05-28 01:56:00,
2013-05-27 19:01:00,55.4,46.9,29.88,WNW,290,2.7,2.7,73,0.00,,,0.00,VWS V13.01,2013-05-28 02:01:00,
2013-05-27 19:06:00,55.4,46.9,29.88,WNW,292,2.2,2.7,73,0.00,,,0.00,VWS V13.01,2013-05-28 02:06:00,
2013-05-27 19:11:00,55.4,46.9,29.88,WNW,283,3.1,3.1,73,0.00,,,0.00,VWS V13.01,2013-05-28 02:11:00,
2013-05-27 19:16:00,55.4,46.9,29.88,WNW,297,5.8,7.2,73,0.00,,,0.00,VWS V13.01,2013-05-28 02:16:00,
2013-05-27 19:21:00,55.2,46.7,29.88,WNW,289,2.2,3.1,73,0.00,,,0.00,VWS V13.01,2013-05-28 02:21:00,
2013-05-27 19:26:00,55.0,46.5,29.88,West,270,4.0,4.9,73,0.00,,,0.00,VWS V13.01,2013-05-28 02:26:00,
2013-05-27 19:31:00,55.0,46.5,29.88,West,270,3.1,3.1,73,0.00,,,0.00,VWS V13.01,2013-05-28 02:31:00,
2013-05-27 19:36:00,54.9,46.0,29.88,West,270,3.6,4.0,72,0.00,,,0.00,VWS V13.01,2013-05-28 02:36:00,
2013-05-27 19:41:00,54.9,46.0,29.88,WNW,290,2.2,2.2,72,0.00,,,0.00,VWS V13.01,2013-05-28 02:41:00,
2013-05-27 19:46:00,54.7,45.8,29.88,WNW,293,5.8,5.8,72,0.00,,,0.00,VWS V13.01,2013-05-28 02:46:00,
2013-05-27 19:51:00,54.7,45.8,29.88,WNW,282,0.0,0.0,72,0.00,,,0.00,VWS V13.01,2013-05-28 02:51:00,
2013-05-27 19:56:00,54.7,45.8,29.88,WNW,290,3.1,3.6,72,0.00,,,0.00,VWS V13.01,2013-05-28 02:56:00,
2013-05-27 20:01:00,54.7,45.8,29.88,West,279,4.0,4.0,72,0.00,,,0.00,VWS V13.01,2013-05-28 03:01:00,
2013-05-27 20:06:00,54.7,46.2,29.88,West,278,3.1,3.6,73,0.00,,,0.00,VWS V13.01,2013-05-28 03:06:00,
2013-05-27 20:11:00,54.5,46.0,29.88,WNW,289,4.9,5.8,73,0.00,,,0.00,VWS V13.01,2013-05-28 03:11:00,
2013-05-27 20:16:00,54.5,46.0,29.88,WNW,285,4.9,4.9,73,0.00,,,0.00,VWS V13.01,2013-05-28 03:16:00,
2013-05-27 20:21:00,54.5,46.0,29.88,WNW,287,3.6,3.6,73,0.00,,,0.00,VWS V13.01,2013-05-28 03:21:00,
2013-05-27 20:26:00,54.5,46.4,29.88,WNW,288,5.4,5.4,74,0.00,,,0.00,VWS V13.01,2013-05-28 03:26:00,
2013-05-27 20:31:00,54.5,46.4,29.88,WNW,294,0.0,3.6,74,0.00,,,0.00,VWS V13.01,2013-05-28 03:31:00,
2013-05-27 20:36:00,54.3,46.6,29.88,WNW,291,4.9,4.9,75,0.00,,,0.00,VWS V13.01,2013-05-28 03:36:00,
2013-05-27 20:41:00,54.3,46.9,29.88,WNW,288,3.6,10.5,76,0.00,,,0.00,VWS V13.01,2013-05-28 03:41:00,
2013-05-27 20:46:00,54.3,47.3,29.88,West,273,2.7,2.7,77,0.00,,,0.00,VWS V13.01,2013-05-28 03:46:00,
2013-05-27 20:51:00,54.3,47.3,29.88,WNW,287,5.4,8.7,77,0.00,,,0.00,VWS V13.01,2013-05-28 03:51:00,
2013-05-27 20:56:00,54.1,47.4,29.88,WNW,300,8.3,8.7,78,0.00,,,0.00,VWS V13.01,2013-05-28 03:56:00,
2013-05-27 21:01:00,54.1,47.8,29.88,NW,305,4.0,6.3,79,0.00,,,0.00,VWS V13.01,2013-05-28 04:01:00,
2013-05-27 21:06:00,54.1,48.1,29.88,West,271,8.1,10.1,80,0.00,,,0.00,VWS V13.01,2013-05-28 04:06:00,
2013-05-27 21:11:00,54.0,47.9,29.88,WNW,282,4.9,6.3,80,0.00,,,0.00,VWS V13.01,2013-05-28 04:11:00,
2013-05-27 21:16:00,54.0,47.9,29.88,WNW,282,5.4,5.4,80,0.00,,,0.00,VWS V13.01,2013-05-28 04:16:00,
2013-05-27 21:21:00,54.0,47.9,29.88,WNW,293,5.4,5.4,80,0.00,,,0.00,VWS V13.01,2013-05-28 04:21:00,
2013-05-27 21:26:00,54.0,47.9,29.88,WNW,297,4.9,5.8,80,0.00,,,0.00,VWS V13.01,2013-05-28 04:26:00,
2013-05-27 21:31:00,54.0,48.3,29.88,WNW,288,4.0,4.9,81,0.00,,,0.00,VWS V13.01,2013-05-28 04:31:00,
2013-05-27 21:36:00,54.0,48.3,29.88,West,281,2.7,3.1,81,0.00,,,0.00,VWS V13.01,2013-05-28 04:36:00,
2013-05-27 21:41:00,54.0,48.6,29.88,WNW,284,6.3,6.3,82,0.00,,,0.00,VWS V13.01,2013-05-28 04:41:00,
2013-05-27 21:46:00,54.0,48.6,29.88,West,280,8.1,8.1,82,0.00,,,0.00,VWS V13.01,2013-05-28 04:46:00,
2013-05-27 21:51:00,54.0,48.6,29.88,WNW,295,6.3,6.3,82,0.00,,,0.00,VWS V13.01,2013-05-28 04:51:00,
2013-05-27 21:56:00,54.0,48.6,29.88,NW,310,6.3,12.3,82,0.00,,,0.00,VWS V13.01,2013-05-28 04:56:00,
2013-05-27 22:01:00,53.8,48.8,29.88,WNW,300,5.4,8.7,83,0.00,,,0.00,VWS V13.01,2013-05-28 05:01:00,
2013-05-27 22:06:00,53.8,48.8,29.88,West,267,5.4,5.4,83,0.00,,,0.00,VWS V13.01,2013-05-28 05:06:00,
2013-05-27 22:11:00,53.8,48.8,29.88,WNW,300,5.8,6.3,83,0.00,,,0.00,VWS V13.01,2013-05-28 05:11:00,
2013-05-27 22:16:00,53.8,48.8,29.88,WNW,294,5.4,5.4,83,0.00,,,0.00,VWS V13.01,2013-05-28 05:16:00,
2013-05-27 22:21:00,53.8,48.8,29.91,West,264,3.6,3.6,83,0.00,,,0.00,VWS V13.01,2013-05-28 05:21:00,
2013-05-27 22:26:00,54.0,48.9,29.91,WNW,288,4.0,4.0,83,0.00,,,0.00,VWS V13.01,2013-05-28 05:26:00,
2013-05-27 22:31:00,53.8,48.8,29.91,WNW,288,3.6,5.8,83,0.00,,,0.00,VWS V13.01,2013-05-28 05:31:00,
2013-05-27 22:36:00,54.0,48.9,29.91,WNW,291,5.8,5.8,83,0.00,,,0.00,VWS V13.01,2013-05-28 05:36:00,
2013-05-27 22:41:00,54.0,48.9,29.91,West,270,5.4,5.4,83,0.00,,,0.00,VWS V13.01,2013-05-28 05:41:00,
2013-05-27 22:46:00,54.0,48.9,29.91,WNW,287,10.1,10.1,83,0.00,,,0.00,VWS V13.01,2013-05-28 05:46:00,
2013-05-27 22:51:00,54.0,49.2,29.91,West,275,2.7,8.3,84,0.00,,,0.00,VWS V13.01,2013-05-28 05:51:00,
2013-05-27 22:56:00,54.0,49.2,29.91,NNW,330,3.6,5.8,84,0.00,,,0.00,VWS V13.01,2013-05-28 05:56:00,
2013-05-27 23:01:00,54.0,49.2,29.91,West,279,6.3,8.3,84,0.00,,,0.00,VWS V13.01,2013-05-28 06:01:00,
2013-05-27 23:06:00,54.0,49.2,29.91,West,269,3.6,6.3,84,0.00,,,0.00,VWS V13.01,2013-05-28 06:06:00,
2013-05-27 23:11:00,54.0,49.2,29.91,WNW,303,3.6,3.6,84,0.00,,,0.00,VWS V13.01,2013-05-28 06:11:00,
2013-05-27 23:16:00,53.8,49.1,29.91,WNW,287,10.5,11.0,84,0.00,,,0.00,VWS V13.01,2013-05-28 06:16:00,
2013-05-27 23:21:00,53.8,49.1,29.91,WNW,284,4.9,4.9,84,0.00,,,0.00,VWS V13.01,2013-05-28 06:21:00,
2013-05-27 23:26:00,53.6,48.9,29.91,WNW,282,4.0,8.1,84,0.00,,,0.00,VWS V13.01,2013-05-28 06:26:00,
2013-05-27 23:31:00,53.6,48.9,29.91,WNW,290,10.1,10.1,84,0.00,,,0.00,VWS V13.01,2013-05-28 06:31:00,
2013-05-27 23:36:00,53.6,48.9,29.91,SW,232,3.6,8.1,84,0.00,,,0.00,VWS V13.01,2013-05-28 06:36:00,
2013-05-27 23:41:00,53.6,49.2,29.91,NW,315,10.1,10.1,85,0.00,,,0.00,VWS V13.01,2013-05-28 06:41:00,
2013-05-27 23:46:00,53.6,49.2,29.91,West,264,5.8,5.8,85,0.00,,,0.00,VWS V13.01,2013-05-28 06:46:00,
2013-05-27 23:51:00,53.4,49.3,29.91,WNW,285,5.4,5.8,86,0.00,,,0.00,VWS V13.01,2013-05-28 06:51:00,
2013-05-27 23:56:00,53.4,49.3,29.91,WNW,294,7.6,8.7,86,0.00,,,0.00,VWS V13.01,2013-05-28 06:56:00,